Edinburg, Mississippi
Current Conditions -  °F | °C
As of 5:54 PM on Sunday 25 Jan 2015 (Local Time) from KJAN Reporting Station
Few Clouds Few Clouds  
Wind Chill: 59°   Ceiling: Unl
Heat Index: 59°   Visibility: 10mi
Dew Point: 35°   Wind: 10mph
Humidity: 41%   Direction: 280°W
Pressure: 29.84"   Gusts: 17mph
Location:  32.8169°N, 89.5441°W
Report Text: KJAN 252354Z 28009G15KT 10SM FEW070 15/02 A2984 RMK AO2 SLP105 T01500017 10200 20150 51023
Loading
Personal Weather Stations






























Interactive Weather Map New forecast layout! Learn more

10-Day Weather Forecast

Advertisements
Track Severe Weather on mobile